Weather History for Charlevoix, MI

Change the Weather History Date:

Monday, December 10, 2012

  Actual Average Record
Temperature  
Mean Temperature 28 °F -  
Max Temperature 29 °F 38 °F 48 °F (2001)
Min Temperature 26 °F 27 °F 12 °F (2013)
Degree Days  
Heating Degree Days 38    
Moisture  
Dew Point 22 °F    
Average Humidity 80    
Maximum Humidity 94    
Minimum Humidity 72    
Precipitation  
Precipitation 0.00 in - - ()
Sea Level Pressure  
Sea Level Pressure 29.76 in    
Wind  
Wind Speed 9 mph (North)    
Max Wind Speed 15 mph    
Max Gust Speed 21 mph    
Visibility 9 miles    
Events Snow    
Averages and records for this station are not official NWS values.
T = Trace of Precipitation, MM = Missing Value Source: NWS Daily Summary

Daily Weather History Graph

Daily Weather History Graph

Search for Another Location

Airport:

Trip Planner

Search our weather history database for the weather conditions in past years. The results will help you decide how hot, cold, wet, or windy it might be!

Date:

Astronomy

Dec. 10, 2012 Rise Set
Actual Time 8:09 AM EST 4:58 PM EST
Civil Twilight 7:36 AM EST 5:32 PM EST
Nautical Twilight 6:58 AM EST 6:09 PM EST
Astronomical Twilight 6:22 AM EST 6:45 PM EST
Moon 4:47 AM EST (12/10) 2:51 PM EST (12/10)
Length of Visible Light 9h 56m
Length of Day
8h 48m
Waning Crescent, 10% of the Moon is Illuminated
Dec 10
Waning Crescent
Dec 13
New
Dec 20
First Quarter
Dec 28
Full
Jan 4
Last Quarter

Hourly Weather History & Observations

Time (EST) Temp. Windchill Dew Point Humidity Pressure Visibility Wind Dir Wind Speed Gust Speed Precip Events Conditions
12:15 AM 29.1 °F 20.6 °F 25.7 °F 87% 29.76 in 10.0 mi NE 9.2 mph - N/A   Overcast
12:35 AM 29.3 °F 20.8 °F 25.7 °F 86% 29.74 in 10.0 mi NE 9.2 mph - N/A   Overcast
12:55 AM 29.5 °F 20.4 °F 26.1 °F 87% 29.72 in 10.0 mi NE 10.4 mph - N/A   Overcast
1:14 AM 29.8 °F 19.3 °F 26.2 °F 86% 29.71 in 10.0 mi ENE 13.8 mph - N/A   Overcast
1:34 AM 29.8 °F 20.3 °F 25.9 °F 85% 29.70 in 10.0 mi ENE 11.5 mph - N/A   Overcast
1:54 AM 29.8 °F 19.8 °F 25.9 °F 85% 29.70 in 10.0 mi ENE 12.7 mph - N/A   Overcast
2:15 AM 29.7 °F 21.3 °F 25.5 °F 85% 29.69 in 10.0 mi ENE 9.2 mph - N/A   Overcast
2:34 AM 28.4 °F 19.1 °F 25.3 °F 88% 29.70 in 10.0 mi NNE 10.4 mph - N/A   Overcast
2:54 AM 27.5 °F 18.6 °F 25.0 °F 90% 29.69 in 10.0 mi NE 9.2 mph - N/A   Overcast
3:14 AM 27.1 °F 17.5 °F 24.8 °F 91% 29.69 in 7.0 mi NNE 10.4 mph - N/A   Overcast
3:55 AM 27.1 °F 18.9 °F 25.7 °F 94% 29.69 in 4.0 mi NNE 8.1 mph - N/A   Overcast
4:15 AM 27.0 °F 18.7 °F 25.5 °F 94% 29.67 in 4.0 mi NE 8.1 mph - N/A Snow Light Snow
4:35 AM 26.6 °F 18.2 °F 25.0 °F 94% 29.67 in 5.0 mi NE 8.1 mph - N/A Snow Light Snow
4:54 AM 26.6 °F 18.2 °F 24.8 °F 93% 29.67 in 5.0 mi NNE 8.1 mph - N/A Snow Light Snow
5:15 AM 26.6 °F 19.1 °F 24.4 °F 92% 29.67 in 7.0 mi NE 6.9 mph - N/A Snow Light Snow
5:34 AM 26.6 °F 17.5 °F 24.6 °F 92% 29.67 in 7.0 mi NE 9.2 mph - N/A Snow Light Snow
5:55 AM 26.4 °F 17.3 °F 23.2 °F 88% 29.67 in 7.0 mi NNE 9.2 mph - N/A Snow Light Snow
6:15 AM 26.2 °F 18.6 °F 22.6 °F 86% 29.67 in 10.0 mi ENE 6.9 mph - N/A Snow Light Snow
6:34 AM 26.4 °F 19.8 °F 22.1 °F 84% 29.67 in 10.0 mi ENE 5.8 mph - N/A   Overcast
6:55 AM 26.6 °F 21.2 °F 22.1 °F 83% 29.67 in 10.0 mi ENE 4.6 mph - N/A   Overcast
7:14 AM 26.6 °F 22.6 °F 22.5 °F 84% 29.68 in 10.0 mi East 3.5 mph - N/A   Overcast
7:35 AM 27.5 °F 20.2 °F 24.8 °F 90% 29.68 in 10.0 mi North 6.9 mph - N/A   Overcast
7:54 AM 27.9 °F 19.8 °F 24.4 °F 87% 29.68 in 10.0 mi NNW 8.1 mph - N/A Snow Light Snow
8:14 AM 27.9 °F 20.6 °F 23.9 °F 85% 29.69 in 10.0 mi North 6.9 mph - N/A Snow Light Snow
8:35 AM 27.7 °F 19.6 °F 23.9 °F 86% 29.69 in 7.0 mi NNW 8.1 mph - N/A   Overcast
8:55 AM 27.5 °F 18.0 °F 23.5 °F 85% 29.70 in 4.0 mi North 10.4 mph - N/A Snow Light Snow
9:15 AM 27.3 °F 17.7 °F 22.8 °F 83% 29.70 in 3.0 mi North 10.4 mph - N/A Snow Light Snow
9:35 AM 27.3 °F 17.7 °F 22.5 °F 82% 29.71 in 4.0 mi NNW 10.4 mph 17.3 mph N/A Snow Light Snow
9:54 AM 26.8 °F 17.7 °F 19.9 °F 75% 29.72 in 7.0 mi NNW 9.2 mph 18.4 mph N/A   Overcast
10:15 AM 27.1 °F 19.7 °F 20.3 °F 75% 29.72 in 10.0 mi North 6.9 mph - N/A   Overcast
10:35 AM 27.0 °F 19.5 °F 21.4 °F 79% 29.72 in 10.0 mi North 6.9 mph - N/A   Overcast
10:54 AM 27.3 °F 17.7 °F 22.8 °F 83% 29.73 in 5.0 mi NNW 10.4 mph 17.3 mph N/A Snow Light Snow
11:15 AM 27.5 °F 18.0 °F 21.9 °F 80% 29.73 in 10.0 mi NNW 10.4 mph 17.3 mph N/A   Overcast
11:35 AM 27.5 °F 18.0 °F 21.0 °F 77% 29.73 in 10.0 mi NNW 10.4 mph 19.6 mph N/A   Overcast
11:54 AM 27.5 °F 18.6 °F 20.3 °F 74% 29.73 in 10.0 mi North 9.2 mph 17.3 mph N/A   Overcast
12:15 PM 26.6 °F 15.7 °F 19.8 °F 75% 29.73 in 10.0 mi NNW 12.7 mph 17.3 mph N/A   Overcast
12:35 PM 26.6 °F 15.7 °F 19.8 °F 75% 29.73 in 10.0 mi NNW 12.7 mph 18.4 mph N/A   Overcast
12:55 PM 26.4 °F 16.0 °F 19.8 °F 76% 29.73 in 10.0 mi NNW 11.5 mph 20.7 mph N/A   Overcast
1:15 PM 26.4 °F 17.3 °F 20.1 °F 77% 29.74 in 10.0 mi NNW 9.2 mph 18.4 mph N/A   Overcast
1:34 PM 26.6 °F 16.2 °F 20.8 °F 79% 29.74 in 10.0 mi North 11.5 mph 18.4 mph N/A   Overcast
1:55 PM 26.6 °F 16.8 °F 20.3 °F 77% 29.74 in 10.0 mi North 10.4 mph 17.3 mph N/A   Overcast
2:15 PM 26.8 °F 17.1 °F 20.1 °F 76% 29.74 in 7.0 mi North 10.4 mph 18.4 mph N/A   Overcast
2:34 PM 27.1 °F 16.9 °F 20.1 °F 75% 29.75 in 10.0 mi North 11.5 mph 20.7 mph N/A   Overcast
2:55 PM 27.3 °F 16.1 °F 19.6 °F 73% 29.75 in 10.0 mi North 13.8 mph 18.4 mph N/A   Overcast
3:15 PM 27.5 °F 16.3 °F 19.9 °F 73% 29.76 in 10.0 mi North 13.8 mph 19.6 mph N/A   Overcast
3:34 PM 27.3 °F 16.6 °F 19.6 °F 73% 29.77 in 10.0 mi North 12.7 mph 19.6 mph N/A   Overcast
3:55 PM 27.5 °F 18.0 °F 19.8 °F 73% 29.78 in 10.0 mi NNW 10.4 mph 20.7 mph N/A   Overcast
4:14 PM 27.7 °F 18.2 °F 20.1 °F 73% 29.79 in 10.0 mi NNW 10.4 mph 18.4 mph N/A   Overcast
4:35 PM 27.5 °F 17.4 °F 20.1 °F 74% 29.79 in 10.0 mi North 11.5 mph 17.3 mph N/A   Overcast
4:55 PM 27.3 °F 16.6 °F 19.4 °F 72% 29.79 in 10.0 mi North 12.7 mph - N/A   Overcast
5:14 PM 27.5 °F 15.9 °F 20.7 °F 75% 29.79 in 10.0 mi NNW 15.0 mph 18.4 mph N/A   Overcast
5:34 PM 27.3 °F 17.1 °F 20.1 °F 74% 29.80 in 10.0 mi North 11.5 mph 18.4 mph N/A   Overcast
5:54 PM 27.5 °F 16.3 °F 20.5 °F 75% 29.80 in 10.0 mi North 13.8 mph - N/A   Overcast
6:15 PM 28.0 °F 18.6 °F 20.3 °F 73% 29.82 in 10.0 mi North 10.4 mph - N/A   Overcast
6:35 PM 27.5 °F 16.3 °F 20.7 °F 75% 29.82 in 10.0 mi North 13.8 mph 17.3 mph N/A   Overcast
6:54 PM 27.5 °F 16.8 °F 20.5 °F 75% 29.83 in 10.0 mi North 12.7 mph 17.3 mph N/A   Overcast
7:15 PM 27.5 °F 18.0 °F 20.1 °F 74% 29.84 in 10.0 mi North 10.4 mph 18.4 mph N/A   Overcast
7:34 PM 27.5 °F 17.4 °F 19.9 °F 73% 29.85 in 10.0 mi North 11.5 mph 18.4 mph N/A   Overcast
7:55 PM 27.5 °F 18.6 °F 21.0 °F 77% 29.86 in 10.0 mi North 9.2 mph 16.1 mph N/A   Overcast
8:14 PM 27.5 °F 17.4 °F 21.2 °F 77% 29.87 in 10.0 mi North 11.5 mph 17.3 mph N/A   Overcast
8:35 PM 27.5 °F 16.8 °F 21.7 °F 79% 29.88 in 10.0 mi North 12.7 mph 16.1 mph N/A   Overcast
8:54 PM 27.5 °F 18.6 °F 20.3 °F 74% 29.88 in 10.0 mi North 9.2 mph - N/A   Overcast
9:15 PM 27.3 °F 19.9 °F 20.1 °F 74% 29.89 in 10.0 mi NNE 6.9 mph - N/A   Overcast
9:55 PM 27.5 °F 22.2 °F 20.3 °F 74% 29.89 in 10.0 mi NNE 4.6 mph - N/A   Overcast
10:14 PM 27.1 °F 20.7 °F 20.1 °F 75% 29.89 in 10.0 mi NNE 5.8 mph - N/A   Overcast
10:35 PM 27.5 °F - 20.7 °F 75% 29.89 in 10.0 mi Calm Calm - N/A   Overcast
10:54 PM 27.7 °F 22.4 °F 20.3 °F 74% 29.89 in 10.0 mi North 4.6 mph - N/A   Overcast
11:14 PM 27.1 °F 23.2 °F 20.8 °F 77% 29.89 in 10.0 mi NE 3.5 mph - N/A   Overcast
11:34 PM 26.8 °F - 21.2 °F 79% 29.89 in 10.0 mi Calm Calm - N/A   Overcast
11:55 PM 27.0 °F - 21.2 °F 79% 29.90 in 10.0 mi Calm Calm - N/A   Overcast